createdAt,value
2023-02-24T00:02:15.173Z,77.51
2023-02-24T00:04:44.121Z,77.42
2023-02-24T00:07:12.774Z,77.32
2023-02-24T00:09:40.433Z,77.39
2023-02-24T00:12:11.518Z,77.08
2023-02-24T00:14:41.060Z,76.50
2023-02-24T00:17:08.896Z,76.39
2023-02-24T00:19:36.975Z,76.49
2023-02-24T00:22:06.005Z,77.36
2023-02-24T00:24:33.612Z,77.82
2023-02-24T00:27:07.495Z,77.93
2023-02-24T00:29:39.823Z,78.36
2023-02-24T00:32:12.644Z,77.83
2023-02-24T00:34:41.620Z,77.61
2023-02-24T00:37:09.375Z,77.82
2023-02-24T00:39:41.382Z,78.47
2023-02-24T00:42:11.823Z,78.56
2023-02-24T00:44:41.457Z,77.72
2023-02-24T00:47:10.412Z,78.16
2023-02-24T00:49:43.149Z,79.09
2023-02-24T00:52:21.057Z,78.89
2023-02-24T00:54:49.853Z,78.90
2023-02-24T00:57:18.659Z,78.35
2023-02-24T00:59:47.877Z,78.65
2023-02-24T01:02:15.794Z,78.56
2023-02-24T01:04:45.323Z,78.33
2023-02-24T01:07:14.407Z,77.48
2023-02-24T01:09:44.162Z,78.77
2023-02-24T01:12:38.562Z,77.90
2023-02-24T01:15:09.166Z,78.14
2023-02-24T01:17:37.991Z,78.00
2023-02-24T01:20:19.832Z,78.52
2023-02-24T01:22:49.691Z,79.18
2023-02-24T01:25:20.142Z,79.09
2023-02-24T01:27:47.952Z,79.73
2023-02-24T01:30:18.395Z,79.45
2023-02-24T01:32:47.744Z,79.78
2023-02-24T01:35:15.737Z,79.57
2023-02-24T01:37:43.280Z,79.54
2023-02-24T01:40:18.080Z,79.32
2023-02-24T01:42:47.530Z,80.60
2023-02-24T01:45:18.740Z,80.33
2023-02-24T01:47:47.506Z,80.62
2023-02-24T01:50:16.251Z,81.00
2023-02-24T01:52:47.343Z,80.82
2023-02-24T01:55:16.746Z,81.03
2023-02-24T01:57:46.218Z,81.66
2023-02-24T02:00:37.499Z,81.19
2023-02-24T02:03:12.443Z,80.34
2023-02-24T02:05:41.316Z,80.09
2023-02-24T02:08:09.373Z,80.03
2023-02-24T02:10:40.749Z,80.13
2023-02-24T02:13:08.251Z,79.73
2023-02-24T02:15:40.673Z,79.64
2023-02-24T02:18:21.138Z,80.33
2023-02-24T02:20:53.783Z,80.22
2023-02-24T02:23:58.440Z,81.31
2023-02-24T02:26:44.202Z,81.24
2023-02-24T02:29:36.739Z,80.49
2023-02-24T02:32:35.157Z,81.48
2023-02-24T02:35:09.356Z,82.67
2023-02-24T02:37:43.080Z,84.22
2023-02-24T02:40:19.855Z,84.28
2023-02-24T02:43:02.279Z,84.71
2023-02-24T02:45:40.455Z,85.58
2023-02-24T02:48:20.739Z,85.43
2023-02-24T02:51:04.181Z,85.69
2023-02-24T02:53:42.590Z,85.87
2023-02-24T02:56:18.156Z,85.64
2023-02-24T02:58:49.212Z,85.28
2023-02-24T03:01:21.014Z,86.53
2023-02-24T03:03:53.378Z,87.36
2023-02-24T03:06:33.092Z,87.25
2023-02-24T03:09:16.141Z,87.60
2023-02-24T03:11:53.779Z,87.49
2023-02-24T03:14:24.823Z,87.23
2023-02-24T03:16:53.136Z,87.13
2023-02-24T03:19:26.626Z,88.32
2023-02-24T03:22:25.158Z,87.01
2023-02-24T03:24:52.979Z,86.81
2023-02-24T03:27:39.855Z,85.30
2023-02-24T03:30:16.946Z,85.76
2023-02-24T03:33:19.718Z,86.64
2023-02-24T03:35:51.198Z,87.32
2023-02-24T03:38:20.047Z,87.29
2023-02-24T03:40:49.235Z,86.75
2023-02-24T03:43:30.576Z,87.69
2023-02-24T03:46:00.471Z,87.57
2023-02-24T03:48:28.651Z,87.31
2023-02-24T03:50:59.457Z,88.21
2023-02-24T03:53:57.118Z,88.23
2023-02-24T03:56:34.227Z,88.58
2023-02-24T03:59:25.517Z,87.05
2023-02-24T04:02:00.445Z,86.70
2023-02-24T04:05:03.806Z,86.08
2023-02-24T04:07:52.085Z,85.91
2023-02-24T04:10:34.141Z,85.47
2023-02-24T04:13:38.143Z,84.76
2023-02-24T04:16:18.373Z,85.08
2023-02-24T04:18:50.429Z,85.61
2023-02-24T04:21:20.311Z,85.73
2023-02-24T04:23:48.133Z,84.71
2023-02-24T04:26:17.088Z,84.02
2023-02-24T04:28:48.637Z,84.53
2023-02-24T04:31:18.472Z,85.08
2023-02-24T04:33:50.343Z,84.84
2023-02-24T04:36:21.950Z,84.12
2023-02-24T04:38:49.868Z,82.49
2023-02-24T04:41:21.962Z,82.25
2023-02-24T04:43:53.483Z,82.28
2023-02-24T04:46:21.129Z,82.12
2023-02-24T04:48:48.629Z,83.21
2023-02-24T04:51:16.053Z,83.24
2023-02-24T04:53:43.294Z,83.25
2023-02-24T04:56:10.613Z,82.90
2023-02-24T04:58:39.727Z,82.23
2023-02-24T05:01:11.118Z,82.60
2023-02-24T05:03:42.359Z,83.28
2023-02-24T05:06:17.258Z,82.57
2023-02-24T05:08:45.116Z,82.25
2023-02-24T05:11:15.987Z,84.67
2023-02-24T05:13:47.176Z,84.39
2023-02-24T05:16:17.527Z,85.14
2023-02-24T05:18:45.972Z,84.90
2023-02-24T05:21:34.413Z,84.53
2023-02-24T05:24:06.777Z,84.30
2023-02-24T05:26:37.319Z,84.88
2023-02-24T05:29:05.176Z,84.72
2023-02-24T05:31:32.552Z,84.72
2023-02-24T05:34:05.928Z,84.02
2023-02-24T05:36:38.948Z,85.18
2023-02-24T05:39:12.296Z,87.36
2023-02-24T05:41:42.449Z,86.51
2023-02-24T05:44:13.772Z,86.77
2023-02-24T05:46:42.910Z,86.80
2023-02-24T05:49:23.421Z,88.72
2023-02-24T05:51:55.238Z,89.05
2023-02-24T05:54:31.134Z,90.09
2023-02-24T05:57:11.836Z,90.52
2023-02-24T05:59:41.304Z,90.88
2023-02-24T06:02:11.420Z,91.03
2023-02-24T06:04:39.948Z,89.35
2023-02-24T06:07:13.952Z,90.28
2023-02-24T06:09:43.109Z,90.90
2023-02-24T06:12:11.577Z,90.59
2023-02-24T06:14:39.091Z,91.44
2023-02-24T06:17:06.437Z,91.05
2023-02-24T06:19:34.012Z,90.36
2023-02-24T06:22:01.871Z,89.78
2023-02-24T06:24:31.084Z,89.30
2023-02-24T06:27:09.819Z,88.18
2023-02-24T06:29:37.975Z,87.89
2023-02-24T06:32:11.585Z,88.00
2023-02-24T06:34:39.720Z,88.28
2023-02-24T06:37:08.962Z,88.05
2023-02-24T06:39:37.022Z,88.52
2023-02-24T06:42:05.876Z,87.70
2023-02-24T06:44:34.449Z,88.00
2023-02-24T06:47:02.742Z,86.80
2023-02-24T06:49:30.221Z,86.07
2023-02-24T06:51:57.764Z,87.31
2023-02-24T06:54:29.052Z,87.63
2023-02-24T06:57:08.242Z,88.21
2023-02-24T06:59:36.061Z,88.04
2023-02-24T07:02:15.184Z,87.98
2023-02-24T07:04:45.467Z,86.66
2023-02-24T07:07:14.686Z,87.48
2023-02-24T07:09:42.713Z,87.49
2023-02-24T07:12:11.193Z,88.88
2023-02-24T07:14:38.743Z,88.76
2023-02-24T07:17:06.616Z,88.87
2023-02-24T07:19:34.582Z,88.79
2023-02-24T07:22:03.925Z,88.22
2023-02-24T07:24:36.919Z,87.31
2023-02-24T07:27:22.561Z,87.18
2023-02-24T07:29:52.978Z,88.10
2023-02-24T07:32:25.668Z,87.07
2023-02-24T07:34:53.289Z,87.18
2023-02-24T07:37:21.195Z,87.30
2023-02-24T07:39:50.161Z,87.10
2023-02-24T07:42:17.413Z,87.61
2023-02-24T07:44:48.220Z,87.97
2023-02-24T07:47:16.420Z,87.37
2023-02-24T07:49:45.238Z,87.40
2023-02-24T07:52:12.845Z,87.50
2023-02-24T07:54:40.571Z,86.37
2023-02-24T07:57:13.359Z,86.36
2023-02-24T07:59:45.207Z,86.85
2023-02-24T08:02:13.894Z,85.74
2023-02-24T08:04:44.596Z,86.47
2023-02-24T08:07:14.719Z,86.40
2023-02-24T08:09:45.480Z,86.62
2023-02-24T08:12:21.983Z,86.28
2023-02-24T08:14:53.515Z,86.90
2023-02-24T08:17:26.517Z,85.81
2023-02-24T08:20:15.791Z,84.87
2023-02-24T08:22:46.802Z,84.22
2023-02-24T08:25:19.421Z,84.75
2023-02-24T08:28:06.713Z,84.49
2023-02-24T08:30:40.703Z,84.56
2023-02-24T08:33:11.419Z,84.69
2023-02-24T08:35:45.121Z,84.36
2023-02-24T08:38:18.163Z,84.55
2023-02-24T08:40:51.375Z,84.00
2023-02-24T08:43:30.760Z,83.31
2023-02-24T08:46:13.593Z,83.92
2023-02-24T08:48:43.533Z,82.89
2023-02-24T08:51:15.991Z,82.93
2023-02-24T08:53:46.823Z,83.75
2023-02-24T08:56:24.081Z,84.24
2023-02-24T08:58:57.701Z,85.13
2023-02-24T09:01:27.950Z,84.55
2023-02-24T09:03:58.133Z,84.19
2023-02-24T09:07:11.589Z,83.03
2023-02-24T09:09:42.376Z,82.48
2023-02-24T09:12:22.031Z,82.32
2023-02-24T09:14:57.156Z,81.58
2023-02-24T09:18:02.030Z,81.00
2023-02-24T09:20:47.939Z,82.40
2023-02-24T09:23:21.116Z,81.33
2023-02-24T09:25:54.369Z,80.76
2023-02-24T09:28:26.922Z,81.33
2023-02-24T09:30:57.242Z,79.65
2023-02-24T09:33:28.689Z,79.56
2023-02-24T09:36:10.319Z,78.93
2023-02-24T09:38:58.273Z,79.44
2023-02-24T09:41:54.648Z,81.07
2023-02-24T09:44:40.296Z,80.19
2023-02-24T09:47:31.099Z,79.77
2023-02-24T09:50:04.531Z,79.91
2023-02-24T09:52:41.550Z,80.49
2023-02-24T09:55:46.870Z,80.57
2023-02-24T09:58:43.299Z,80.77
2023-02-24T10:01:33.728Z,79.38
2023-02-24T10:04:21.501Z,79.45
2023-02-24T10:06:49.808Z,80.84
2023-02-24T10:09:26.647Z,79.29
2023-02-24T10:12:04.544Z,78.16
2023-02-24T10:15:15.585Z,79.23
2023-02-24T10:17:47.394Z,78.57
2023-02-24T10:20:39.701Z,78.59
2023-02-24T10:23:29.814Z,77.79
2023-02-24T10:26:07.199Z,77.18
2023-02-24T10:28:57.457Z,75.21
2023-02-24T10:31:30.337Z,74.24
2023-02-24T10:34:01.965Z,73.54
2023-02-24T10:36:35.610Z,72.75
2023-02-24T10:39:25.893Z,71.96
2023-02-24T10:41:58.730Z,72.15
2023-02-24T10:44:36.384Z,71.81
2023-02-24T10:47:13.299Z,71.59
2023-02-24T10:49:57.970Z,70.64
2023-02-24T10:52:37.486Z,71.50
2023-02-24T10:55:47.186Z,70.99
2023-02-24T10:58:28.362Z,70.20
2023-02-24T11:01:07.262Z,70.55
2023-02-24T11:03:46.401Z,70.12
2023-02-24T11:06:41.927Z,70.51
2023-02-24T11:09:29.360Z,70.43
2023-02-24T11:12:21.341Z,69.61
2023-02-24T11:15:18.498Z,69.21
2023-02-24T11:17:58.337Z,70.17
2023-02-24T11:20:48.005Z,71.16
2023-02-24T11:23:38.805Z,70.29
2023-02-24T11:26:17.228Z,69.47
2023-02-24T11:28:56.566Z,68.58
2023-02-24T11:31:56.001Z,81.16
2023-02-24T11:34:25.287Z,68.07
2023-02-24T11:37:09.364Z,64.01
2023-02-24T11:39:55.416Z,64.12
2023-02-24T11:42:27.325Z,63.45
2023-02-24T11:45:01.694Z,64.14
2023-02-24T11:47:33.858Z,65.21
2023-02-24T11:50:26.465Z,66.21
2023-02-24T11:52:56.097Z,66.01
2023-02-24T11:55:32.588Z,65.79
2023-02-24T11:58:03.498Z,65.65
2023-02-24T12:00:34.000Z,64.43
2023-02-24T12:03:13.752Z,64.08
2023-02-24T12:05:44.867Z,63.35
2023-02-24T12:08:22.527Z,64.52
2023-02-24T12:10:52.573Z,63.67
2023-02-24T12:13:22.130Z,63.59
2023-02-24T12:16:12.923Z,63.63
2023-02-24T12:18:52.934Z,63.34
2023-02-24T12:21:24.673Z,63.18
2023-02-24T12:23:55.660Z,63.89
2023-02-24T12:26:27.352Z,64.76
2023-02-24T12:29:22.897Z,63.43
2023-02-24T12:32:16.123Z,63.51
2023-02-24T12:34:51.780Z,62.02
2023-02-24T12:37:37.271Z,60.78
2023-02-24T12:40:31.932Z,61.94
2023-02-24T12:43:04.820Z,61.96
2023-02-24T12:45:54.122Z,61.78
2023-02-24T12:48:50.346Z,60.29
2023-02-24T12:51:42.816Z,60.85
2023-02-24T12:54:13.292Z,61.12
2023-02-24T12:56:54.685Z,60.56
2023-02-24T12:59:26.465Z,60.26
2023-02-24T13:02:00.344Z,58.90
2023-02-24T13:04:45.636Z,59.45
2023-02-24T13:07:37.042Z,58.65
2023-02-24T13:10:13.205Z,58.90
2023-02-24T13:12:55.019Z,58.14
2023-02-24T13:15:25.476Z,59.76
2023-02-24T13:17:57.000Z,59.35
2023-02-24T13:20:36.576Z,58.87
2023-02-24T13:23:20.605Z,58.67
2023-02-24T13:25:53.035Z,58.92
2023-02-24T13:28:33.366Z,58.86
2023-02-24T13:31:14.131Z,59.17
2023-02-24T13:33:43.921Z,59.15
2023-02-24T13:36:23.675Z,58.83
2023-02-24T13:39:46.590Z,58.93
2023-02-24T13:42:20.333Z,58.03
2023-02-24T13:44:52.071Z,57.14
2023-02-24T13:47:43.173Z,57.84
2023-02-24T13:50:27.717Z,57.62
2023-02-24T13:53:10.315Z,57.16
2023-02-24T13:56:05.136Z,57.57
2023-02-24T13:59:06.765Z,57.65
2023-02-24T14:01:56.407Z,57.79
2023-02-24T14:04:30.941Z,57.66
2023-02-24T14:07:05.210Z,57.19
2023-02-24T14:10:02.647Z,56.78
2023-02-24T14:12:32.801Z,56.75
2023-02-24T14:15:00.636Z,56.41
2023-02-24T14:17:33.046Z,55.85
2023-02-24T14:20:09.628Z,54.67
2023-02-24T14:22:48.835Z,54.90
2023-02-24T14:25:18.843Z,55.38
2023-02-24T14:27:49.771Z,55.10
2023-02-24T14:30:38.799Z,54.96
2023-02-24T14:33:08.042Z,55.52
2023-02-24T14:35:43.300Z,55.81
2023-02-24T14:38:31.966Z,55.00
2023-02-24T14:40:59.577Z,54.74
2023-02-24T14:43:27.357Z,55.31
2023-02-24T14:46:06.278Z,55.99
2023-02-24T14:48:33.928Z,55.59
2023-02-24T14:51:24.251Z,56.77
2023-02-24T14:53:57.904Z,56.58
2023-02-24T14:56:30.694Z,56.80
2023-02-24T14:59:04.509Z,56.51
2023-02-24T15:01:38.311Z,56.43
2023-02-24T15:04:43.648Z,56.76
2023-02-24T15:07:20.060Z,56.38
2023-02-24T15:09:48.600Z,55.69
2023-02-24T15:12:19.000Z,55.91
2023-02-24T15:15:01.212Z,56.25
2023-02-24T15:17:29.341Z,54.61
2023-02-24T15:19:56.894Z,53.62
2023-02-24T15:22:33.560Z,53.76
2023-02-24T15:25:24.033Z,54.16
2023-02-24T15:27:59.532Z,53.66
2023-02-24T15:30:40.897Z,53.06
2023-02-24T15:33:21.240Z,52.50
2023-02-24T15:35:51.376Z,52.19
2023-02-24T15:38:24.076Z,51.91
2023-02-24T15:40:53.875Z,52.19
2023-02-24T15:43:37.237Z,51.71
2023-02-24T15:46:28.755Z,51.64
2023-02-24T15:48:58.220Z,51.34
2023-02-24T15:51:37.881Z,51.97
2023-02-24T15:54:08.608Z,51.67
2023-02-24T15:56:36.513Z,51.54
2023-02-24T15:59:03.841Z,50.81
2023-02-24T16:01:31.489Z,50.18
2023-02-24T16:04:04.891Z,50.04
2023-02-24T16:06:33.939Z,49.74
2023-02-24T16:09:05.315Z,49.27
2023-02-24T16:11:36.716Z,49.42
2023-02-24T16:14:04.383Z,48.40
2023-02-24T16:16:33.506Z,47.60
2023-02-24T16:19:01.054Z,47.43
2023-02-24T16:21:28.527Z,45.48
2023-02-24T16:23:56.307Z,44.94
2023-02-24T16:26:27.390Z,44.50
2023-02-24T16:28:57.110Z,43.65
2023-02-24T16:31:26.761Z,44.12
2023-02-24T16:33:56.086Z,44.86
2023-02-24T16:36:25.528Z,44.95
2023-02-24T16:38:53.229Z,43.72
2023-02-24T16:41:21.122Z,42.66
2023-02-24T16:43:48.597Z,42.71
2023-02-24T16:46:18.582Z,42.81
2023-02-24T16:48:48.281Z,43.08
2023-02-24T16:51:16.297Z,43.24
2023-02-24T16:53:43.884Z,44.89
2023-02-24T16:56:12.609Z,44.86
2023-02-24T16:58:39.992Z,43.14
2023-02-24T17:01:07.664Z,42.25
2023-02-24T17:03:42.771Z,41.53
2023-02-24T17:06:10.227Z,41.03
2023-02-24T17:08:37.886Z,40.45
2023-02-24T17:11:05.412Z,40.67
2023-02-24T17:13:32.807Z,41.32
2023-02-24T17:16:00.293Z,42.90
2023-02-24T17:18:27.745Z,43.27
2023-02-24T17:20:55.473Z,43.49
2023-02-24T17:23:23.059Z,43.46
2023-02-24T17:25:53.730Z,43.15
2023-02-24T17:28:21.241Z,43.48
2023-02-24T17:30:48.655Z,43.63
2023-02-24T17:33:16.316Z,43.78
2023-02-24T17:35:44.128Z,44.50
2023-02-24T17:38:19.108Z,44.43
2023-02-24T17:40:47.308Z,44.19
2023-02-24T17:43:14.900Z,44.12
2023-02-24T17:45:45.561Z,44.16
2023-02-24T17:48:14.615Z,44.09
2023-02-24T17:50:43.071Z,44.70
2023-02-24T17:53:10.662Z,45.14
2023-02-24T17:55:37.951Z,45.69
2023-02-24T17:58:05.384Z,46.44
2023-02-24T18:00:32.844Z,46.08
2023-02-24T18:03:02.965Z,46.75
2023-02-24T18:05:31.699Z,53.49
2023-02-24T18:07:59.214Z,46.45
2023-02-24T18:10:27.400Z,45.95
2023-02-24T18:12:54.748Z,47.33
2023-02-24T18:15:22.622Z,47.54
2023-02-24T18:17:50.097Z,47.49
2023-02-24T18:20:17.898Z,48.31
2023-02-24T18:22:45.528Z,48.08
2023-02-24T18:25:13.632Z,48.71
2023-02-24T18:27:41.376Z,49.98
2023-02-24T18:30:10.267Z,49.43
2023-02-24T18:32:44.594Z,49.50
2023-02-24T18:35:12.952Z,50.66
2023-02-24T18:37:40.428Z,51.46
2023-02-24T18:40:08.280Z,51.58
2023-02-24T18:42:35.595Z,51.36
2023-02-24T18:45:03.341Z,52.76
2023-02-24T18:47:30.708Z,54.91
2023-02-24T18:49:58.169Z,56.67
2023-02-24T18:52:25.636Z,57.78
2023-02-24T18:54:53.209Z,58.20
2023-02-24T18:57:20.611Z,57.98
2023-02-24T18:59:50.978Z,58.65
2023-02-24T19:02:18.415Z,59.42
2023-02-24T19:04:46.130Z,59.78
2023-02-24T19:07:13.674Z,60.42
2023-02-24T19:09:42.610Z,60.06
2023-02-24T19:12:09.964Z,59.16
2023-02-24T19:14:37.282Z,58.80
2023-02-24T19:17:04.713Z,59.24
2023-02-24T19:19:32.201Z,59.81
2023-02-24T19:22:00.234Z,59.60
2023-02-24T19:24:28.143Z,61.21
2023-02-24T19:26:56.011Z,61.14
2023-02-24T19:29:23.536Z,61.66
2023-02-24T19:31:54.199Z,61.76
2023-02-24T19:34:22.677Z,61.96
2023-02-24T19:36:50.197Z,62.71
2023-02-24T19:39:18.941Z,63.65
2023-02-24T19:41:48.549Z,63.79
2023-02-24T19:44:17.163Z,63.68
2023-02-24T19:46:44.678Z,62.97
2023-02-24T19:49:11.973Z,63.03
2023-02-24T19:51:39.263Z,62.98
2023-02-24T19:54:06.909Z,62.92
2023-02-24T19:56:36.608Z,62.73
2023-02-24T19:59:05.561Z,63.57
2023-02-24T20:01:33.126Z,64.21
2023-02-24T20:04:02.478Z,63.94
2023-02-24T20:06:36.414Z,64.12
2023-02-24T20:09:21.847Z,65.70
2023-02-24T20:11:50.597Z,66.82
2023-02-24T20:14:19.892Z,67.51
2023-02-24T20:16:47.940Z,67.92
2023-02-24T20:19:15.683Z,68.49
2023-02-24T20:21:43.180Z,69.63
2023-02-24T20:24:13.974Z,70.59
2023-02-24T20:26:43.357Z,71.56
2023-02-24T20:29:11.506Z,71.88
2023-02-24T20:31:40.512Z,71.99
2023-02-24T20:34:09.385Z,72.12
2023-02-24T20:36:37.203Z,72.45
2023-02-24T20:39:06.584Z,72.95
2023-02-24T20:41:34.743Z,73.66
2023-02-24T20:44:02.186Z,72.23
2023-02-24T20:46:31.595Z,72.92
2023-02-24T20:49:05.478Z,72.62
2023-02-24T20:51:34.328Z,71.65
2023-02-24T20:54:01.602Z,71.32
2023-02-24T20:56:34.162Z,71.30
2023-02-24T20:59:04.698Z,73.17
2023-02-24T21:01:33.196Z,72.67
2023-02-24T21:04:01.073Z,73.27
2023-02-24T21:06:29.034Z,72.39
2023-02-24T21:08:57.333Z,72.55
2023-02-24T21:11:25.410Z,72.52
2023-02-24T21:13:53.052Z,72.79
2023-02-24T21:16:21.773Z,72.47
2023-02-24T21:18:50.566Z,73.72
2023-02-24T21:21:19.551Z,72.68
2023-02-24T21:23:47.392Z,72.47
2023-02-24T21:26:14.967Z,72.65
2023-02-24T21:28:42.453Z,72.99
2023-02-24T21:31:13.250Z,73.22
2023-02-24T21:33:41.183Z,73.07
2023-02-24T21:36:13.562Z,72.54
2023-02-24T21:38:41.462Z,72.95
2023-02-24T21:41:13.337Z,72.65
2023-02-24T21:43:41.563Z,73.70
2023-02-24T21:46:09.294Z,73.19
2023-02-24T21:48:37.278Z,72.85
2023-02-24T21:51:06.934Z,72.64
2023-02-24T21:53:35.856Z,71.91
2023-02-24T21:56:16.373Z,72.50
2023-02-24T21:58:58.480Z,73.62
2023-02-24T22:01:34.727Z,74.50
2023-02-24T22:04:04.825Z,73.57
2023-02-24T22:06:34.957Z,73.12
2023-02-24T22:09:04.554Z,71.87
2023-02-24T22:11:35.249Z,72.72
2023-02-24T22:14:03.113Z,73.48
2023-02-24T22:16:30.616Z,73.75
2023-02-24T22:18:58.226Z,73.79
2023-02-24T22:21:27.490Z,72.48
2023-02-24T22:23:57.740Z,72.86
2023-02-24T22:26:26.832Z,72.82
2023-02-24T22:28:55.108Z,72.52
2023-02-24T22:31:26.090Z,72.78
2023-02-24T22:33:54.377Z,73.39
2023-02-24T22:36:25.202Z,73.32
2023-02-24T22:38:57.229Z,74.31
2023-02-24T22:41:31.346Z,73.96
2023-02-24T22:43:59.840Z,73.89
2023-02-24T22:46:33.027Z,74.99
2023-02-24T22:49:00.752Z,74.71
2023-02-24T22:51:28.630Z,75.60
2023-02-24T22:53:56.761Z,76.91
2023-02-24T22:56:26.422Z,76.49
2023-02-24T22:58:56.089Z,76.27
2023-02-24T23:01:26.466Z,76.44
2023-02-24T23:03:54.125Z,77.35
2023-02-24T23:06:24.031Z,78.18
2023-02-24T23:08:51.799Z,77.82
2023-02-24T23:11:24.936Z,77.26
2023-02-24T23:13:52.696Z,77.37
2023-02-24T23:16:27.376Z,78.79
2023-02-24T23:18:58.320Z,78.98
2023-02-24T23:21:31.494Z,79.54
2023-02-24T23:24:00.263Z,79.86
2023-02-24T23:26:31.607Z,79.05
2023-02-24T23:28:59.567Z,78.09
2023-02-24T23:31:27.403Z,77.97
2023-02-24T23:33:55.125Z,79.36
2023-02-24T23:36:24.008Z,78.58
2023-02-24T23:38:52.781Z,78.05
2023-02-24T23:41:20.246Z,77.96
2023-02-24T23:43:47.696Z,77.38
2023-02-24T23:46:15.177Z,77.07
2023-02-24T23:48:42.496Z,78.16
2023-02-24T23:51:13.934Z,78.35
2023-02-24T23:53:43.142Z,78.34
2023-02-24T23:56:31.738Z,77.88
2023-02-24T23:58:59.482Z,77.08
